Torrington, CT

3:56 PM EST on February 01, 2015 (GMT -0500)
Hartford-brainard | Change Station
CLOSE
Current Station
Airport
Location: Hartford,
Elevation: 16 ft
Nearby Weather Stations
Active Advisory: Winter Storm Warning

Elev 16 ft 41.74 °N, 72.65 °W | Updated 1 hour ago

Partly Cloudy
Partly Cloudy
33 °F
Feels Like 24 °F
N
12
Wind Variable Wind from WNW
Gusts 22 mph

Today
High -- | Low -- °F
--% Chance of Precip.
Yesterday
High -- | Low -- °F
Precip. -- in
7:05 AM 5:07 PM
Waxing Gibbous, 96% visible
Pressure 30.13 in
Visibility 10.0 miles
Clouds Clear
Windchill 24 °F
Dew Point 10 °F
Humidity 38%
Rainfall 0.00 in
Snow Depth Not available.
UV 1 out of 12
Pollen .10 out of 12
Air Quality Not available.
Flu Activity Not available.
METAR KHFD 011953Z 29010G19KT 10SM CLR 01/M12 A3012 RMK AO2 SLP201 T00061122

More Conditions Fewer Conditions

Pressure 30.13 in
Visibility 10.0 miles
Clouds Clear
Windchill 24 °F
Dew Point 10 °F
Humidity 38%
Rainfall 0.00 in
Snow Depth Not available.
UV 1 out of 12
Pollen .10 out of 12
Air Quality Not available.
Flu Activity Not available.
METAR KHFD 011953Z 29010G19KT 10SM CLR 01/M12 A3012 RMK AO2 SLP201 T00061122

More Conditions Fewer Conditions

10-Day Weather Forecast

Almanac

Astronomy

Feb. 01, 2015 Rise Set
Actual Time
Civil Twilight
Nautical Twilight
Astronomical Twilight
Moon
Length of Visible Light
Length of Day
Tomorrow will be .
, % of the Moon is Illuminated

Today's Extremes

State Highs State Lows

Community

WunderPhotos

Upload Photos

1,792,514 photos uploaded!

WunderBlogs® & News

Nearby

Air Quality

  Air Quality AQ Index Pollutant
Not available.

Snow Depth

Station Depth Elevation

Earthquake Activity

City Distance Mag. Time & Date
Minimum magnitude displayed is 2.5.

Coastal Water Temperatures

Place Temperature

Nearby Weather Stations